»·PEaware :: N2102W KSNA-KSMO

N2102W :: KSNA-KSMO

FLIGHT INFORMATION

Flight Status: Arrived
Operator: Privately registered:
United States
More flights under this callsign
Pilot: Eric G. (5941)
Aircraft: SOCATA TBM-850
(TBM8)
More flights by this aircraft type
Origin: KSNA John Wayne-Orange Co
United States
Destination: KSMO Santa Monica Mun
United States
More flights between these airports :: More routes between these airports
Route: +MUSEL8 SLI V459 DARTS
File this flight plan on PilotEdge
Remarks: USNG MSFS 2020 ... HOPE ALL GOES WELL!
Altitude:
(Current/Filed)
6,000ft
Speed:
(Current/Filed)
225kts
Departed: 03-Sep-20 05:53 PM
Arrived: 03-Sep-20 06:14 PM
Distance/Time
Traveled:
636nm/0:21
Distance/Time
To Go:
Arrived

Flight Plot

Page will automatically refresh every two minutes.

Flight plan parsing failed; only flown route is shown


Map Options




Map Legend


Flown Route
Filed Route
Departure Airport
Arrival Airport
Navaid (VOR, NDB)
Fix

Horizontal Profiles

Position Reports

Time Latitude Longitude Heading Altitude Ground
Speed
03-Sep-20 17:26 33.664958 -117.873753 217 57ft 0kts
03-Sep-20 17:27 33.664958 -117.873753 217 57ft 0kts
03-Sep-20 17:28 33.664958 -117.873753 217 57ft 0kts
03-Sep-20 17:29 33.664958 -117.873753 217 57ft 0kts
03-Sep-20 17:29 33.664958 -117.873753 217 57ft 0kts
03-Sep-20 17:31 33.664958 -117.873753 217 57ft 0kts
03-Sep-20 17:32 33.664958 -117.873753 217 57ft 0kts
03-Sep-20 17:32 33.664958 -117.873753 217 57ft 0kts
03-Sep-20 17:33 33.664958 -117.873753 217 57ft 0kts
03-Sep-20 17:35 33.664958 -117.873753 217 57ft 0kts
03-Sep-20 17:35 33.664958 -117.873753 217 57ft 0kts
03-Sep-20 17:36 33.664958 -117.873753 217 57ft 0kts
03-Sep-20 17:37 33.664958 -117.873753 217 57ft 0kts
03-Sep-20 17:38 33.664958 -117.873753 217 57ft 0kts
03-Sep-20 17:39 33.664967 -117.874215 329 57ft 0kts
03-Sep-20 17:40 33.664967 -117.874215 329 57ft 0kts
03-Sep-20 17:41 33.664967 -117.874215 329 57ft 0kts
03-Sep-20 17:42 33.667178 -117.873132 31 62ft 12kts
03-Sep-20 17:43 33.669464 -117.870784 46 56ft 16kts
03-Sep-20 17:44 33.672509 -117.867964 26 55ft 12kts
03-Sep-20 17:45 33.675100 -117.866531 27 56ft 11kts
03-Sep-20 17:46 33.678169 -117.864558 27 48ft 14kts
03-Sep-20 17:47 33.680228 -117.864194 290 45ft 6kts
03-Sep-20 17:48 33.680406 -117.864633 298 45ft 0kts
03-Sep-20 17:49 33.680406 -117.864633 298 45ft 0kts
03-Sep-20 17:50 33.680406 -117.864633 298 45ft 0kts
03-Sep-20 17:51 33.680680 -117.865739 205 44ft 7kts
03-Sep-20 17:52 33.660410 -117.878389 210 693ft 134kts
03-Sep-20 17:53 33.617213 -117.893734 199 1891ft 175kts
03-Sep-20 17:54 33.576396 -117.909420 193 2238ft 150kts
03-Sep-20 17:55 33.540788 -117.933010 250 4010ft 177kts
03-Sep-20 17:56 33.547117 -117.994461 288 6116ft 175kts
03-Sep-20 17:57 33.561602 -118.060221 284 7552ft 210kts
03-Sep-20 17:58 33.585044 -118.128270 292 7453ft 224kts
03-Sep-20 17:59 33.612868 -118.185720 339 7752ft 189kts
03-Sep-20 18:00 33.668379 -118.166384 39 7574ft 257kts
03-Sep-20 18:01 33.717161 -118.115934 41 8065ft 225kts
03-Sep-20 18:02 33.762793 -118.067165 39 7673ft 208kts
03-Sep-20 18:03 33.816126 -118.059510 327 7882ft 203kts
03-Sep-20 18:04 33.861446 -118.096003 326 8042ft 202kts
03-Sep-20 18:05 33.900928 -118.146080 305 6388ft 223kts
03-Sep-20 18:06 33.926286 -118.208701 287 4217ft 212kts
03-Sep-20 18:07 33.943126 -118.267442 287 3092ft 174kts
03-Sep-20 18:08 33.962883 -118.315410 326 2922ft 172kts
03-Sep-20 18:09 33.996994 -118.348426 313 2932ft 167kts
03-Sep-20 18:10 34.025913 -118.390331 307 2386ft 167kts
03-Sep-20 18:11 34.033701 -118.429984 229 901ft 104kts
03-Sep-20 18:12 34.017108 -118.449892 219 159ft 60kts
03-Sep-20 18:13 34.012896 -118.454038 122 145ft 0kts
03-Sep-20 18:14 34.012894 -118.454034 120 145ft 0kts
03-Sep-20 18:15 34.014281 -118.451866 91 149ft 9kts
03-Sep-20 18:16 34.014364 -118.451236 46 148ft 0kts
03-Sep-20 18:18 0.000408 0.013975 0 3ft 0kts
03-Sep-20 18:19 39.640953 -106.914697 21 6500ft 0kts
03-Sep-20 18:20 39.640953 -106.914697 21 6511ft 0kts
03-Sep-20 18:21 39.640953 -106.914697 21 6511ft 0kts
03-Sep-20 18:22 39.640953 -106.914697 21 6511ft 0kts
03-Sep-20 18:23 39.640953 -106.914697 21 6511ft 0kts
03-Sep-20 18:24 39.640870 -106.914694 339 6511ft 0kts
03-Sep-20 18:25 39.640870 -106.914694 339 6511ft 0kts
03-Sep-20 18:26 39.640870 -106.914694 339 6511ft 0kts
03-Sep-20 18:27 39.640870 -106.914694 339 6511ft 0kts

Navigation Log

Ident Type
Flight plan parsing failed, navigation log unavailable